sensor_id;sensor_type;location;lat;lon;timestamp;pressure;altitude;pressure_sealevel;temperature;humidity
60874;BME280;46715;40.642;-7.920;2023-02-28T00:01:00;96520.94;;;5.72;46.64
60874;BME280;46715;40.642;-7.920;2023-02-28T00:03:01;96524.75;;;5.70;46.09
60874;BME280;46715;40.642;-7.920;2023-02-28T00:05:03;96533.88;;;5.60;45.21
60874;BME280;46715;40.642;-7.920;2023-02-28T00:07:04;96521.06;;;5.54;45.29
60874;BME280;46715;40.642;-7.920;2023-02-28T00:09:05;96536.16;;;5.45;45.09
60874;BME280;46715;40.642;-7.920;2023-02-28T00:11:11;96528.97;;;5.35;44.69
60874;BME280;46715;40.642;-7.920;2023-02-28T00:13:12;96532.34;;;5.24;44.60
60874;BME280;46715;40.642;-7.920;2023-02-28T00:15:14;96532.91;;;5.38;44.78
60874;BME280;46715;40.642;-7.920;2023-02-28T00:17:15;96536.59;;;5.30;44.89
60874;BME280;46715;40.642;-7.920;2023-02-28T00:19:19;96544.47;;;5.35;45.00
60874;BME280;46715;40.642;-7.920;2023-02-28T00:21:20;96546.16;;;5.29;44.97
60874;BME280;46715;40.642;-7.920;2023-02-28T00:23:21;96541.22;;;5.28;45.57
60874;BME280;46715;40.642;-7.920;2023-02-28T00:25:24;96549.44;;;5.25;45.26
60874;BME280;46715;40.642;-7.920;2023-02-28T00:27:25;96544.69;;;5.22;44.81
60874;BME280;46715;40.642;-7.920;2023-02-28T00:29:26;96540.66;;;5.14;45.41
60874;BME280;46715;40.642;-7.920;2023-02-28T00:31:27;96546.38;;;5.16;45.63
60874;BME280;46715;40.642;-7.920;2023-02-28T00:33:28;96543.13;;;5.09;45.17
60874;BME280;46715;40.642;-7.920;2023-02-28T00:35:29;96542.00;;;5.05;45.15
60874;BME280;46715;40.642;-7.920;2023-02-28T00:37:30;96540.22;;;4.93;45.54
60874;BME280;46715;40.642;-7.920;2023-02-28T00:39:31;96541.13;;;4.87;45.64
60874;BME280;46715;40.642;-7.920;2023-02-28T00:41:32;96536.72;;;4.88;45.21
60874;BME280;46715;40.642;-7.920;2023-02-28T00:43:37;96540.56;;;4.97;45.14
60874;BME280;46715;40.642;-7.920;2023-02-28T00:45:37;96550.88;;;4.85;44.55
60874;BME280;46715;40.642;-7.920;2023-02-28T00:47:38;96545.47;;;4.87;45.01
60874;BME280;46715;40.642;-7.920;2023-02-28T00:49:40;96543.78;;;4.81;45.22
60874;BME280;46715;40.642;-7.920;2023-02-28T00:51:43;96543.53;;;4.70;45.22
60874;BME280;46715;40.642;-7.920;2023-02-28T00:53:44;96556.34;;;4.65;45.50
60874;BME280;46715;40.642;-7.920;2023-02-28T00:55:45;96552.94;;;4.53;45.10
60874;BME280;46715;40.642;-7.920;2023-02-28T00:57:45;96557.44;;;4.57;44.78
60874;BME280;46715;40.642;-7.920;2023-02-28T00:59:46;96565.97;;;4.58;44.84
60874;BME280;46715;40.642;-7.920;2023-02-28T01:01:47;96559.78;;;4.59;44.81
60874;BME280;46715;40.642;-7.920;2023-02-28T01:03:48;96565.75;;;4.59;44.58
60874;BME280;46715;40.642;-7.920;2023-02-28T01:05:48;96568.34;;;4.59;44.70
60874;BME280;46715;40.642;-7.920;2023-02-28T01:07:51;96563.34;;;4.46;44.85
60874;BME280;46715;40.642;-7.920;2023-02-28T01:09:51;96584.72;;;4.53;44.61
60874;BME280;46715;40.642;-7.920;2023-02-28T01:11:52;96575.03;;;4.49;44.51
60874;BME280;46715;40.642;-7.920;2023-02-28T01:13:53;96562.00;;;4.43;44.50
60874;BME280;46715;40.642;-7.920;2023-02-28T01:15:55;96563.13;;;4.48;44.59
60874;BME280;46715;40.642;-7.920;2023-02-28T01:17:56;96571.28;;;4.33;44.98
60874;BME280;46715;40.642;-7.920;2023-02-28T01:19:57;96572.19;;;4.38;44.85
60874;BME280;46715;40.642;-7.920;2023-02-28T01:22:05;96568.13;;;4.31;45.18
60874;BME280;46715;40.642;-7.920;2023-02-28T01:24:08;96577.97;;;4.22;45.62
60874;BME280;46715;40.642;-7.920;2023-02-28T01:26:13;96585.16;;;4.20;45.60
60874;BME280;46715;40.642;-7.920;2023-02-28T01:28:14;96578.97;;;4.21;45.74
60874;BME280;46715;40.642;-7.920;2023-02-28T01:30:15;96571.78;;;4.23;46.01
60874;BME280;46715;40.642;-7.920;2023-02-28T01:32:16;96569.81;;;4.25;45.61
60874;BME280;46715;40.642;-7.920;2023-02-28T01:34:17;96572.91;;;4.15;46.44
60874;BME280;46715;40.642;-7.920;2023-02-28T01:36:22;96562.63;;;4.27;45.81
60874;BME280;46715;40.642;-7.920;2023-02-28T01:38:23;96574.38;;;4.23;46.14
60874;BME280;46715;40.642;-7.920;2023-02-28T01:40:24;96568.06;;;4.19;46.05
60874;BME280;46715;40.642;-7.920;2023-02-28T01:42:25;96564.72;;;4.18;46.30
60874;BME280;46715;40.642;-7.920;2023-02-28T01:45:02;96570.78;;;4.24;45.63
60874;BME280;46715;40.642;-7.920;2023-02-28T01:47:04;96566.69;;;4.04;46.48
60874;BME280;46715;40.642;-7.920;2023-02-28T01:49:14;96573.72;;;3.97;46.62
60874;BME280;46715;40.642;-7.920;2023-02-28T01:51:22;96579.00;;;4.02;46.26
60874;BME280;46715;40.642;-7.920;2023-02-28T01:53:30;96571.13;;;3.79;46.25
60874;BME280;46715;40.642;-7.920;2023-02-28T01:55:33;96578.59;;;3.68;46.65
60874;BME280;46715;40.642;-7.920;2023-02-28T01:57:38;96573.50;;;3.62;46.78
60874;BME280;46715;40.642;-7.920;2023-02-28T01:59:43;96567.03;;;3.89;46.44
60874;BME280;46715;40.642;-7.920;2023-02-28T02:01:46;96566.25;;;3.89;45.93
60874;BME280;46715;40.642;-7.920;2023-02-28T02:03:49;96566.47;;;3.87;46.26
60874;BME280;46715;40.642;-7.920;2023-02-28T02:05:55;96567.19;;;3.76;46.32
60874;BME280;46715;40.642;-7.920;2023-02-28T02:08:01;96579.50;;;3.74;46.86
60874;BME280;46715;40.642;-7.920;2023-02-28T02:14:38;96569.03;;;3.69;46.27
60874;BME280;46715;40.642;-7.920;2023-02-28T02:24:26;96571.13;;;3.79;46.19
60874;BME280;46715;40.642;-7.920;2023-02-28T02:38:32;96574.75;;;3.52;47.93
60874;BME280;46715;40.642;-7.920;2023-02-28T02:40:43;96588.09;;;3.68;46.83
60874;BME280;46715;40.642;-7.920;2023-02-28T02:44:58;96593.97;;;3.56;47.84
60874;BME280;46715;40.642;-7.920;2023-02-28T02:47:08;96591.38;;;3.56;47.66
60874;BME280;46715;40.642;-7.920;2023-02-28T02:49:18;96587.16;;;3.62;47.66
60874;BME280;46715;40.642;-7.920;2023-02-28T02:51:22;96595.50;;;3.64;47.55
60874;BME280;46715;40.642;-7.920;2023-02-28T02:53:35;96598.78;;;3.53;47.96
60874;BME280;46715;40.642;-7.920;2023-02-28T02:55:41;96608.50;;;3.51;48.40
60874;BME280;46715;40.642;-7.920;2023-02-28T02:57:57;96606.06;;;3.37;47.97
60874;BME280;46715;40.642;-7.920;2023-02-28T03:00:00;96609.69;;;3.30;48.69
60874;BME280;46715;40.642;-7.920;2023-02-28T03:02:06;96618.97;;;3.56;48.11
60874;BME280;46715;40.642;-7.920;2023-02-28T03:04:15;96607.22;;;3.41;48.05
60874;BME280;46715;40.642;-7.920;2023-02-28T03:06:17;96613.66;;;3.51;47.67
60874;BME280;46715;40.642;-7.920;2023-02-28T03:08:18;96615.06;;;3.47;48.27
60874;BME280;46715;40.642;-7.920;2023-02-28T03:10:41;96613.72;;;3.44;48.69
60874;BME280;46715;40.642;-7.920;2023-02-28T03:13:03;96607.34;;;3.47;48.00
60874;BME280;46715;40.642;-7.920;2023-02-28T03:15:26;96605.13;;;3.50;48.38
60874;BME280;46715;40.642;-7.920;2023-02-28T03:17:47;96590.81;;;3.54;48.47
60874;BME280;46715;40.642;-7.920;2023-02-28T03:24:27;96590.53;;;3.63;48.04
60874;BME280;46715;40.642;-7.920;2023-02-28T03:26:34;96593.06;;;3.69;47.76
60874;BME280;46715;40.642;-7.920;2023-02-28T03:31:22;96588.31;;;3.48;48.16
60874;BME280;46715;40.642;-7.920;2023-02-28T03:33:34;96581.78;;;3.45;48.90
60874;BME280;46715;40.642;-7.920;2023-02-28T03:35:51;96595.16;;;3.35;48.95
60874;BME280;46715;40.642;-7.920;2023-02-28T03:38:05;96595.00;;;3.30;49.28
60874;BME280;46715;40.642;-7.920;2023-02-28T03:40:11;96577.56;;;3.51;48.88
60874;BME280;46715;40.642;-7.920;2023-02-28T03:42:21;96586.38;;;3.62;48.80
60874;BME280;46715;40.642;-7.920;2023-02-28T03:44:33;96573.41;;;3.50;48.88
60874;BME280;46715;40.642;-7.920;2023-02-28T03:46:38;96579.03;;;3.40;49.37
60874;BME280;46715;40.642;-7.920;2023-02-28T03:48:52;96568.44;;;3.30;49.56
60874;BME280;46715;40.642;-7.920;2023-02-28T03:50:55;96573.16;;;3.33;49.26
60874;BME280;46715;40.642;-7.920;2023-02-28T03:53:11;96565.44;;;3.33;48.93
60874;BME280;46715;40.642;-7.920;2023-02-28T03:55:15;96578.72;;;3.55;48.98
60874;BME280;46715;40.642;-7.920;2023-02-28T03:57:32;96564.00;;;3.37;48.81
60874;BME280;46715;40.642;-7.920;2023-02-28T04:00:04;96569.59;;;3.34;49.47
60874;BME280;46715;40.642;-7.920;2023-02-28T04:02:12;96567.50;;;3.24;49.23
60874;BME280;46715;40.642;-7.920;2023-02-28T04:04:14;96549.09;;;3.20;49.79
60874;BME280;46715;40.642;-7.920;2023-02-28T04:06:21;96563.50;;;3.28;49.92
60874;BME280;46715;40.642;-7.920;2023-02-28T04:08:22;96550.88;;;3.20;50.14
60874;BME280;46715;40.642;-7.920;2023-02-28T04:10:23;96559.28;;;3.15;49.52
60874;BME280;46715;40.642;-7.920;2023-02-28T04:12:24;96542.06;;;3.09;50.37
60874;BME280;46715;40.642;-7.920;2023-02-28T04:14:26;96550.00;;;3.07;50.49
60874;BME280;46715;40.642;-7.920;2023-02-28T04:16:26;96549.63;;;3.04;50.30
60874;BME280;46715;40.642;-7.920;2023-02-28T04:18:28;96555.63;;;3.23;50.24
60874;BME280;46715;40.642;-7.920;2023-02-28T04:20:28;96557.69;;;3.33;50.04
60874;BME280;46715;40.642;-7.920;2023-02-28T04:22:29;96547.25;;;3.28;49.81
60874;BME280;46715;40.642;-7.920;2023-02-28T04:24:30;96551.50;;;3.40;49.50
60874;BME280;46715;40.642;-7.920;2023-02-28T04:26:35;96552.41;;;3.28;50.27
60874;BME280;46715;40.642;-7.920;2023-02-28T04:28:37;96556.03;;;3.20;50.80
60874;BME280;46715;40.642;-7.920;2023-02-28T04:30:39;96559.28;;;3.15;50.26
60874;BME280;46715;40.642;-7.920;2023-02-28T04:32:39;96560.97;;;3.21;50.48
60874;BME280;46715;40.642;-7.920;2023-02-28T04:34:40;96541.50;;;3.07;50.79
60874;BME280;46715;40.642;-7.920;2023-02-28T04:36:41;96556.09;;;3.13;50.90
60874;BME280;46715;40.642;-7.920;2023-02-28T04:38:42;96558.59;;;3.01;51.18
60874;BME280;46715;40.642;-7.920;2023-02-28T04:40:44;96559.00;;;2.98;51.11
60874;BME280;46715;40.642;-7.920;2023-02-28T04:42:45;96562.63;;;3.16;50.61
60874;BME280;46715;40.642;-7.920;2023-02-28T04:44:45;96554.16;;;3.09;51.57
60874;BME280;46715;40.642;-7.920;2023-02-28T04:46:48;96569.84;;;3.07;51.61
60874;BME280;46715;40.642;-7.920;2023-02-28T04:48:49;96566.63;;;3.12;51.35
60874;BME280;46715;40.642;-7.920;2023-02-28T04:50:51;96574.66;;;2.97;51.67
60874;BME280;46715;40.642;-7.920;2023-02-28T04:52:52;96579.00;;;3.03;51.51
60874;BME280;46715;40.642;-7.920;2023-02-28T04:54:52;96582.75;;;3.00;51.95
60874;BME280;46715;40.642;-7.920;2023-02-28T04:56:53;96587.09;;;3.00;52.16
60874;BME280;46715;40.642;-7.920;2023-02-28T04:58:56;96592.06;;;3.01;51.98
60874;BME280;46715;40.642;-7.920;2023-02-28T05:01:16;96578.78;;;3.04;51.56
60874;BME280;46715;40.642;-7.920;2023-02-28T05:03:17;96593.63;;;3.02;51.68
60874;BME280;46715;40.642;-7.920;2023-02-28T05:05:18;96588.91;;;2.99;52.48
60874;BME280;46715;40.642;-7.920;2023-02-28T05:07:19;96588.47;;;3.02;51.97
60874;BME280;46715;40.642;-7.920;2023-02-28T05:09:20;96590.16;;;2.90;51.75
60874;BME280;46715;40.642;-7.920;2023-02-28T05:11:24;96594.66;;;3.01;52.70
60874;BME280;46715;40.642;-7.920;2023-02-28T05:13:25;96612.56;;;2.89;52.41
60874;BME280;46715;40.642;-7.920;2023-02-28T05:15:26;96609.41;;;2.87;52.43
60874;BME280;46715;40.642;-7.920;2023-02-28T05:17:28;96621.63;;;2.99;52.09
60874;BME280;46715;40.642;-7.920;2023-02-28T05:19:28;96633.53;;;2.93;52.00
60874;BME280;46715;40.642;-7.920;2023-02-28T05:21:32;96638.72;;;2.86;52.81
60874;BME280;46715;40.642;-7.920;2023-02-28T05:23:35;96637.50;;;2.96;52.01
60874;BME280;46715;40.642;-7.920;2023-02-28T05:25:35;96642.53;;;3.09;51.63
60874;BME280;46715;40.642;-7.920;2023-02-28T05:27:36;96643.44;;;2.96;52.14
60874;BME280;46715;40.642;-7.920;2023-02-28T05:29:37;96629.22;;;2.87;52.73
60874;BME280;46715;40.642;-7.920;2023-02-28T05:31:42;96642.31;;;2.85;52.37
60874;BME280;46715;40.642;-7.920;2023-02-28T05:33:42;96638.84;;;2.98;53.03
60874;BME280;46715;40.642;-7.920;2023-02-28T05:35:43;96644.09;;;2.85;53.01
60874;BME280;46715;40.642;-7.920;2023-02-28T05:37:44;96648.06;;;2.87;52.62
60874;BME280;46715;40.642;-7.920;2023-02-28T05:39:45;96656.28;;;3.03;52.45
60874;BME280;46715;40.642;-7.920;2023-02-28T05:41:45;96651.66;;;2.80;53.04
60874;BME280;46715;40.642;-7.920;2023-02-28T05:43:47;96643.19;;;2.72;53.30
60874;BME280;46715;40.642;-7.920;2023-02-28T05:45:48;96654.84;;;2.75;53.56
60874;BME280;46715;40.642;-7.920;2023-02-28T05:47:56;96660.81;;;2.69;53.52
60874;BME280;46715;40.642;-7.920;2023-02-28T05:49:56;96650.91;;;2.72;52.90
60874;BME280;46715;40.642;-7.920;2023-02-28T05:52:04;96662.16;;;2.78;53.31
60874;BME280;46715;40.642;-7.920;2023-02-28T05:54:05;96656.03;;;2.79;53.58
60874;BME280;46715;40.642;-7.920;2023-02-28T05:56:10;96668.84;;;2.86;53.30
60874;BME280;46715;40.642;-7.920;2023-02-28T05:58:10;96683.97;;;2.76;54.11
60874;BME280;46715;40.642;-7.920;2023-02-28T06:00:13;96674.25;;;2.78;53.55
60874;BME280;46715;40.642;-7.920;2023-02-28T06:02:17;96671.75;;;2.64;53.89
60874;BME280;46715;40.642;-7.920;2023-02-28T06:04:19;96672.09;;;2.68;54.04
60874;BME280;46715;40.642;-7.920;2023-02-28T06:06:21;96679.47;;;2.64;53.77
60874;BME280;46715;40.642;-7.920;2023-02-28T06:08:22;96676.28;;;2.62;54.33
60874;BME280;46715;40.642;-7.920;2023-02-28T06:10:22;96686.63;;;2.55;54.31
60874;BME280;46715;40.642;-7.920;2023-02-28T06:12:23;96688.84;;;2.45;54.49
60874;BME280;46715;40.642;-7.920;2023-02-28T06:14:24;96692.34;;;2.64;54.71
60874;BME280;46715;40.642;-7.920;2023-02-28T06:16:26;96695.63;;;2.78;54.36
60874;BME280;46715;40.642;-7.920;2023-02-28T06:18:27;96704.44;;;2.57;54.78
60874;BME280;46715;40.642;-7.920;2023-02-28T06:20:29;96707.47;;;2.47;54.64
60874;BME280;46715;40.642;-7.920;2023-02-28T06:22:29;96705.66;;;2.54;54.69
60874;BME280;46715;40.642;-7.920;2023-02-28T06:24:38;96714.53;;;2.65;54.21
60874;BME280;46715;40.642;-7.920;2023-02-28T06:26:38;96723.22;;;2.64;53.97
60874;BME280;46715;40.642;-7.920;2023-02-28T06:28:40;96710.19;;;2.52;54.88
60874;BME280;46715;40.642;-7.920;2023-02-28T06:30:40;96710.63;;;2.43;55.37
60874;BME280;46715;40.642;-7.920;2023-02-28T06:32:41;96717.56;;;2.42;54.98
60874;BME280;46715;40.642;-7.920;2023-02-28T06:34:42;96721.75;;;2.36;55.39
60874;BME280;46715;40.642;-7.920;2023-02-28T06:36:43;96712.84;;;2.32;55.23
60874;BME280;46715;40.642;-7.920;2023-02-28T06:38:45;96720.53;;;2.46;54.90
60874;BME280;46715;40.642;-7.920;2023-02-28T06:40:52;96736.94;;;2.51;54.76
60874;BME280;46715;40.642;-7.920;2023-02-28T06:42:53;96729.03;;;2.46;55.19
60874;BME280;46715;40.642;-7.920;2023-02-28T06:44:55;96735.78;;;2.41;55.52
60874;BME280;46715;40.642;-7.920;2023-02-28T06:46:56;96734.22;;;2.33;55.44
60874;BME280;46715;40.642;-7.920;2023-02-28T06:49:04;96741.78;;;2.21;56.45
60874;BME280;46715;40.642;-7.920;2023-02-28T06:51:07;96739.56;;;2.31;56.18
60874;BME280;46715;40.642;-7.920;2023-02-28T06:53:09;96736.78;;;2.33;55.83
60874;BME280;46715;40.642;-7.920;2023-02-28T06:55:09;96736.19;;;2.37;55.81
60874;BME280;46715;40.642;-7.920;2023-02-28T06:57:17;96739.31;;;2.53;55.81
60874;BME280;46715;40.642;-7.920;2023-02-28T06:59:17;96748.81;;;2.52;54.90
60874;BME280;46715;40.642;-7.920;2023-02-28T07:01:19;96741.53;;;2.36;55.88
60874;BME280;46715;40.642;-7.920;2023-02-28T07:03:19;96741.31;;;2.44;55.56
60874;BME280;46715;40.642;-7.920;2023-02-28T07:05:27;96744.09;;;2.43;56.07
60874;BME280;46715;40.642;-7.920;2023-02-28T07:07:27;96748.66;;;2.41;56.22
60874;BME280;46715;40.642;-7.920;2023-02-28T07:09:35;96740.84;;;2.61;55.37
60874;BME280;46715;40.642;-7.920;2023-02-28T07:11:35;96747.19;;;2.65;55.77
60874;BME280;46715;40.642;-7.920;2023-02-28T07:13:37;96752.41;;;2.51;55.74
60874;BME280;46715;40.642;-7.920;2023-02-28T07:15:37;96746.88;;;2.34;56.35
60874;BME280;46715;40.642;-7.920;2023-02-28T07:17:38;96751.03;;;2.35;56.47
60874;BME280;46715;40.642;-7.920;2023-02-28T07:19:39;96753.56;;;2.55;56.09
60874;BME280;46715;40.642;-7.920;2023-02-28T07:21:40;96753.34;;;2.64;56.03
60874;BME280;46715;40.642;-7.920;2023-02-28T07:23:41;96753.59;;;2.49;56.15
60874;BME280;46715;40.642;-7.920;2023-02-28T07:25:46;96753.81;;;2.41;56.21
60874;BME280;46715;40.642;-7.920;2023-02-28T07:27:46;96746.03;;;2.54;56.23
60874;BME280;46715;40.642;-7.920;2023-02-28T07:29:47;96755.75;;;2.52;56.25
60874;BME280;46715;40.642;-7.920;2023-02-28T07:31:48;96753.16;;;2.52;55.87
60874;BME280;46715;40.642;-7.920;2023-02-28T07:33:51;96759.28;;;2.64;55.58
60874;BME280;46715;40.642;-7.920;2023-02-28T07:35:51;96764.78;;;2.75;55.62
60874;BME280;46715;40.642;-7.920;2023-02-28T07:37:52;96760.66;;;2.67;55.39
60874;BME280;46715;40.642;-7.920;2023-02-28T07:39:53;96766.13;;;2.84;55.59
60874;BME280;46715;40.642;-7.920;2023-02-28T07:41:54;96766.56;;;3.19;55.04
60874;BME280;46715;40.642;-7.920;2023-02-28T07:43:59;96771.88;;;3.82;53.22
60874;BME280;46715;40.642;-7.920;2023-02-28T07:46:05;96768.56;;;4.62;51.04
60874;BME280;46715;40.642;-7.920;2023-02-28T07:48:07;96755.88;;;5.52;48.35
60874;BME280;46715;40.642;-7.920;2023-02-28T07:50:17;96758.88;;;6.38;46.78
60874;BME280;46715;40.642;-7.920;2023-02-28T07:52:18;96764.41;;;6.30;45.74
60874;BME280;46715;40.642;-7.920;2023-02-28T07:54:18;96765.25;;;6.71;45.10
60874;BME280;46715;40.642;-7.920;2023-02-28T07:56:19;96757.91;;;7.09;44.06
60874;BME280;46715;40.642;-7.920;2023-02-28T07:58:27;96767.06;;;7.57;43.18
60874;BME280;46715;40.642;-7.920;2023-02-28T08:00:27;96770.56;;;8.36;41.31
60874;BME280;46715;40.642;-7.920;2023-02-28T08:02:29;96768.00;;;9.30;40.14
60874;BME280;46715;40.642;-7.920;2023-02-28T08:04:32;96772.53;;;9.12;39.75
60874;BME280;46715;40.642;-7.920;2023-02-28T08:06:35;96777.63;;;9.29;39.67
60874;BME280;46715;40.642;-7.920;2023-02-28T08:08:36;96771.25;;;10.07;38.25
60874;BME280;46715;40.642;-7.920;2023-02-28T08:10:37;96762.75;;;10.65;37.53
60874;BME280;46715;40.642;-7.920;2023-02-28T08:12:38;96762.22;;;10.68;36.67
60874;BME280;46715;40.642;-7.920;2023-02-28T08:14:39;96772.69;;;9.55;38.30
60874;BME280;46715;40.642;-7.920;2023-02-28T08:16:40;96772.84;;;10.13;37.42
60874;BME280;46715;40.642;-7.920;2023-02-28T08:18:41;96773.97;;;10.70;36.52
60874;BME280;46715;40.642;-7.920;2023-02-28T08:20:41;96781.97;;;11.22;35.92
60874;BME280;46715;40.642;-7.920;2023-02-28T08:22:42;96777.06;;;11.62;34.67
60874;BME280;46715;40.642;-7.920;2023-02-28T08:24:43;96774.44;;;11.46;34.20
60874;BME280;46715;40.642;-7.920;2023-02-28T08:26:48;96787.44;;;11.20;35.37
60874;BME280;46715;40.642;-7.920;2023-02-28T08:28:48;96776.03;;;11.63;34.65
60874;BME280;46715;40.642;-7.920;2023-02-28T08:30:49;96780.72;;;11.66;34.73
60874;BME280;46715;40.642;-7.920;2023-02-28T08:32:50;96785.97;;;11.60;34.79
60874;BME280;46715;40.642;-7.920;2023-02-28T08:34:51;96782.81;;;11.84;34.37
60874;BME280;46715;40.642;-7.920;2023-02-28T08:36:52;96782.53;;;12.27;33.77
60874;BME280;46715;40.642;-7.920;2023-02-28T08:38:53;96790.94;;;12.03;33.75
60874;BME280;46715;40.642;-7.920;2023-02-28T08:40:58;96787.53;;;12.18;34.10
60874;BME280;46715;40.642;-7.920;2023-02-28T08:43:00;96792.41;;;12.56;33.20
60874;BME280;46715;40.642;-7.920;2023-02-28T08:45:00;96791.38;;;12.52;33.35
60874;BME280;46715;40.642;-7.920;2023-02-28T08:47:01;96779.44;;;12.09;33.69
60874;BME280;46715;40.642;-7.920;2023-02-28T08:49:02;96783.88;;;12.14;33.40
60874;BME280;46715;40.642;-7.920;2023-02-28T08:51:06;96799.22;;;12.52;33.24
60874;BME280;46715;40.642;-7.920;2023-02-28T08:53:09;96797.72;;;12.25;33.69
60874;BME280;46715;40.642;-7.920;2023-02-28T08:55:10;96785.09;;;12.48;33.14
60874;BME280;46715;40.642;-7.920;2023-02-28T08:57:11;96788.16;;;12.75;33.38
60874;BME280;46715;40.642;-7.920;2023-02-28T08:59:12;96788.69;;;12.72;33.09
60874;BME280;46715;40.642;-7.920;2023-02-28T09:03:16;96793.78;;;11.66;34.74
60874;BME280;46715;40.642;-7.920;2023-02-28T09:05:17;96796.69;;;12.05;34.51
60874;BME280;46715;40.642;-7.920;2023-02-28T09:07:18;96806.03;;;12.53;33.81
60874;BME280;46715;40.642;-7.920;2023-02-28T09:09:19;96799.53;;;12.30;33.56
60874;BME280;46715;40.642;-7.920;2023-02-28T09:11:20;96792.22;;;11.85;34.01
60874;BME280;46715;40.642;-7.920;2023-02-28T09:13:21;96787.00;;;12.06;34.65
60874;BME280;46715;40.642;-7.920;2023-02-28T09:15:22;96795.06;;;12.45;33.69
60874;BME280;46715;40.642;-7.920;2023-02-28T09:17:23;96798.34;;;12.82;33.56
60874;BME280;46715;40.642;-7.920;2023-02-28T09:19:30;96801.97;;;12.91;32.65
60874;BME280;46715;40.642;-7.920;2023-02-28T09:21:31;96816.66;;;12.82;32.71
60874;BME280;46715;40.642;-7.920;2023-02-28T09:23:33;96806.25;;;12.67;32.89
60874;BME280;46715;40.642;-7.920;2023-02-28T09:25:34;96810.75;;;13.21;32.70
60874;BME280;46715;40.642;-7.920;2023-02-28T09:27:36;96795.59;;;13.97;31.52
60874;BME280;46715;40.642;-7.920;2023-02-28T09:29:37;96811.13;;;14.47;30.62
60874;BME280;46715;40.642;-7.920;2023-02-28T09:31:38;96807.19;;;14.21;30.39
60874;BME280;46715;40.642;-7.920;2023-02-28T09:33:39;96795.59;;;13.97;30.74
60874;BME280;46715;40.642;-7.920;2023-02-28T09:35:40;96807.75;;;13.49;31.89
60874;BME280;46715;40.642;-7.920;2023-02-28T09:37:41;96809.88;;;13.81;31.55
60874;BME280;46715;40.642;-7.920;2023-02-28T09:39:48;96808.63;;;13.73;31.52
60874;BME280;46715;40.642;-7.920;2023-02-28T09:41:51;96807.31;;;14.10;31.26
60874;BME280;46715;40.642;-7.920;2023-02-28T09:43:55;96804.72;;;14.35;31.08
60874;BME280;46715;40.642;-7.920;2023-02-28T09:46:05;96832.72;;;13.75;31.09
60874;BME280;46715;40.642;-7.920;2023-02-28T09:48:16;96803.19;;;13.64;31.63
60874;BME280;46715;40.642;-7.920;2023-02-28T09:50:28;96797.53;;;12.87;32.52
60874;BME280;46715;40.642;-7.920;2023-02-28T09:52:36;96799.38;;;12.91;32.25
60874;BME280;46715;40.642;-7.920;2023-02-28T09:54:37;96805.97;;;12.78;32.72
60874;BME280;46715;40.642;-7.920;2023-02-28T09:56:50;96813.09;;;12.37;33.36
60874;BME280;46715;40.642;-7.920;2023-02-28T10:01:42;96799.75;;;13.19;32.64
60874;BME280;46715;40.642;-7.920;2023-02-28T10:04:01;96804.44;;;13.27;32.16
60874;BME280;46715;40.642;-7.920;2023-02-28T10:08:21;96796.88;;;12.60;33.40
60874;BME280;46715;40.642;-7.920;2023-02-28T10:10:46;96810.50;;;12.37;33.41
60874;BME280;46715;40.642;-7.920;2023-02-28T10:12:52;96803.47;;;12.11;33.51
60874;BME280;46715;40.642;-7.920;2023-02-28T10:14:54;96797.38;;;11.23;35.07
60874;BME280;46715;40.642;-7.920;2023-02-28T10:17:16;96806.06;;;9.63;38.16
60874;BME280;46715;40.642;-7.920;2023-02-28T10:19:40;96797.81;;;8.95;39.52
60874;BME280;46715;40.642;-7.920;2023-02-28T10:24:35;96796.31;;;8.21;43.06
60874;BME280;46715;40.642;-7.920;2023-02-28T10:26:41;96806.84;;;8.48;41.73
60874;BME280;46715;40.642;-7.920;2023-02-28T10:28:45;96809.69;;;8.46;41.96
60874;BME280;46715;40.642;-7.920;2023-02-28T10:30:53;96798.66;;;8.56;41.82
60874;BME280;46715;40.642;-7.920;2023-02-28T10:32:55;96799.44;;;8.57;42.01
60874;BME280;46715;40.642;-7.920;2023-02-28T10:37:19;96794.34;;;8.45;41.91
60874;BME280;46715;40.642;-7.920;2023-02-28T10:39:45;96795.28;;;8.39;42.29
60874;BME280;46715;40.642;-7.920;2023-02-28T10:41:47;96785.75;;;8.44;41.25
60874;BME280;46715;40.642;-7.920;2023-02-28T10:43:48;96797.44;;;8.25;42.35
60874;BME280;46715;40.642;-7.920;2023-02-28T10:45:56;96790.31;;;8.37;41.85
60874;BME280;46715;40.642;-7.920;2023-02-28T10:48:03;96787.28;;;8.23;41.61
60874;BME280;46715;40.642;-7.920;2023-02-28T10:50:05;96780.91;;;7.97;42.29
60874;BME280;46715;40.642;-7.920;2023-02-28T10:52:09;96782.75;;;8.35;42.01
60874;BME280;46715;40.642;-7.920;2023-02-28T10:54:28;96777.13;;;8.44;41.43
60874;BME280;46715;40.642;-7.920;2023-02-28T10:56:29;96765.50;;;8.46;41.29
60874;BME280;46715;40.642;-7.920;2023-02-28T11:00:42;96788.13;;;8.29;42.39
60874;BME280;46715;40.642;-7.920;2023-02-28T11:02:43;96779.28;;;8.30;42.98
60874;BME280;46715;40.642;-7.920;2023-02-28T11:04:44;96780.22;;;8.58;42.28
60874;BME280;46715;40.642;-7.920;2023-02-28T11:06:46;96780.75;;;8.60;41.65
60874;BME280;46715;40.642;-7.920;2023-02-28T11:08:49;96775.97;;;8.51;41.98
60874;BME280;46715;40.642;-7.920;2023-02-28T11:10:56;96771.53;;;8.69;42.24
60874;BME280;46715;40.642;-7.920;2023-02-28T11:12:58;96781.63;;;8.87;41.11
60874;BME280;46715;40.642;-7.920;2023-02-28T11:15:01;96774.66;;;8.93;40.73
60874;BME280;46715;40.642;-7.920;2023-02-28T11:17:14;96770.13;;;8.83;40.57
60874;BME280;46715;40.642;-7.920;2023-02-28T11:19:23;96769.34;;;8.83;40.90
60874;BME280;46715;40.642;-7.920;2023-02-28T11:21:34;96772.91;;;8.99;40.27
60874;BME280;46715;40.642;-7.920;2023-02-28T11:23:40;96768.72;;;8.98;40.46
60874;BME280;46715;40.642;-7.920;2023-02-28T11:25:51;96767.84;;;9.14;39.94
60874;BME280;46715;40.642;-7.920;2023-02-28T11:27:59;96774.53;;;9.32;39.70
60874;BME280;46715;40.642;-7.920;2023-02-28T11:30:02;96755.22;;;9.23;39.40
60874;BME280;46715;40.642;-7.920;2023-02-28T11:32:21;96751.91;;;9.06;39.35
60874;BME280;46715;40.642;-7.920;2023-02-28T11:34:25;96749.00;;;9.02;39.70
60874;BME280;46715;40.642;-7.920;2023-02-28T11:36:30;96751.81;;;9.23;39.96
60874;BME280;46715;40.642;-7.920;2023-02-28T11:38:34;96760.44;;;9.28;39.49
60874;BME280;46715;40.642;-7.920;2023-02-28T11:41:13;96760.81;;;9.37;40.29
60874;BME280;46715;40.642;-7.920;2023-02-28T11:46:03;96739.34;;;9.25;39.54